Iberica Hav — C6YI3 — position and weather

sailwx.info

Track history (hours):
 
Tides and Currents Weather Stations Pressure Air Temp Water Temp Dewpoint Dewpoint Depression Visibility Wind Speed Wind Dir Waves Ship Positions

Iberica Hav

Last reported at 2014-Nov-21 16:33 UTC. Time now 2014-Nov-23 03:27 UTC.
Position N 50°36' E 000°18'.

Length 88 m; draft 3.7 m.

Type: Cargo ship. MMSI: 311034400.

Date/timePositionNaut miles runAvg speedWind from/ knotsBaromVisibWave heightAir tempDewpointWater temp
2014-Nov-21 16:33N 50°36' E 000°18'9 9.5
2014-Nov-21 15:34N 50°38' E 000°32'9 9.4
2014-Nov-21 14:33N 50°44' E 000°44'9 8.7
2014-Nov-21 13:33N 50°49' E 000°56'15 7.3
2014-Nov-21 11:26N 50°58' E 001°15'5 5.9
2014-Nov-21 10:33N 51°02' E 001°22'6 6.5
2014-Nov-21 09:33N 51°06' E 001°29'8 8.3
2014-Nov-21 08:33N 51°11' E 001°40'1010.0
2014-Nov-21 07:34N 51°19' E 001°50'1110.7
2014-Nov-21 06:33N 51°28' E 001°59'11 9.8
2014-Nov-21 05:26N 51°37' E 002°09'190 8.3
2014-Nov-20 06:28N 54°14' E 005°05'175 8.3
2014-Nov-19 09:31N 56°40' E 007°56'124 8.3
2014-Nov-18 18:33N 57°41' E 011°13'8 8.5
2014-Nov-18 17:33N 57°38' E 011°28'8 7.3
2014-Nov-18 16:32N 57°36' E 011°42'0 0.0
2014-Nov-18 15:32N 57°36' E 011°42'0 0.0
2014-Nov-18 14:32N 57°36' E 011°42'3 2.8
2014-Nov-18 13:34N 57°33' E 011°40'8 7.8
2014-Nov-18 12:33N 57°26' E 011°44'18 8.4
2014-Nov-18 10:24N 57°11' E 012°03'7 8.7
2014-Nov-18 09:33N 57°05' E 012°13'2 0.8
2014-Nov-18 07:26N 57°07' E 012°15'  
2014-Nov-15 02:24N 56°30' E 012°22'7 8.8
2014-Nov-15 01:33N 56°23' E 012°24'9 8.7
2014-Nov-15 00:33N 56°14' E 012°27'1010.2
2014-Nov-14 23:33N 56°05' E 012°36'1010.2
2014-Nov-14 22:33N 55°56' E 012°44'10 9.6
2014-Nov-14 21:33N 55°46' E 012°43'10 9.9
2014-Nov-14 20:33N 55°37' E 012°42'9 9.4
2014-Nov-14 19:33N 55°27' E 012°42'9 8.7
2014-Nov-14 18:33N 55°18' E 012°43'9 8.8
2014-Nov-14 17:33N 55°16' E 012°58'9 8.7
2014-Nov-14 16:32N 55°16' E 013°14'57 8.1
2014-Nov-14 09:27N 55°31' E 014°51'54 8.6
2014-Nov-14 03:09N 55°59' E 016°13'83 7.8
2014-Nov-13 16:32N 57°15' E 017°11'8 7.4
2014-Nov-13 15:28N 57°23' E 017°06'7 8.1
2014-Nov-13 14:33N 57°19' E 016°55'9 8.5
2014-Nov-13 13:33N 57°13' E 016°43'9 7.9
2014-Nov-13 12:24N 57°06' E 016°34'0 0.0
2014-Nov-13 08:31N 57°06' E 016°34'0 0.0
2014-Nov-13 06:28N 57°06' E 016°34'0 0.0
2014-Nov-13 00:31N 57°06' E 016°34'0 0.0
2014-Nov-12 23:28N 57°06' E 016°34'0 0.0
2014-Nov-12 22:31N 57°06' E 016°34'0 0.0
2014-Nov-12 21:28N 57°06' E 016°34'0 0.0
2014-Nov-12 20:31N 57°06' E 016°34'0 0.0
2014-Nov-12 19:25N 57°06' E 016°34'5 5.8
2014-Nov-12 18:33N 57°10' E 016°37'1110.5
2014-Nov-12 17:33N 57°18' E 016°51'10 9.8
2014-Nov-12 16:33N 57°22' E 017°07'10 9.6
2014-Nov-12 15:32N 57°14' E 017°17'  
Track history (hours):
 
Tides and Currents Weather Stations Pressure Air Temp Water Temp Dewpoint Dewpoint Depression Visibility Wind Speed Wind Dir Waves Ship Positions

Iberica Hav

Last reported at 2014-Nov-21 16:33 UTC. Time now 2014-Nov-23 03:27 UTC.
Position N 50°36' E 000°18'.

Length 88 m; draft 3.7 m.

Type: Cargo ship. MMSI: 311034400.

Date/timePositionNaut miles runAvg speedWind from/ knotsBaromVisibWave heightAir tempDewpointWater temp
2014-Nov-21 16:33N 50°36' E 000°18'9 9.5
2014-Nov-21 15:34N 50°38' E 000°32'9 9.4
2014-Nov-21 14:33N 50°44' E 000°44'9 8.7
2014-Nov-21 13:33N 50°49' E 000°56'15 7.3
2014-Nov-21 11:26N 50°58' E 001°15'5 5.9
2014-Nov-21 10:33N 51°02' E 001°22'6 6.5
2014-Nov-21 09:33N 51°06' E 001°29'8 8.3
2014-Nov-21 08:33N 51°11' E 001°40'1010.0
2014-Nov-21 07:34N 51°19' E 001°50'1110.7
2014-Nov-21 06:33N 51°28' E 001°59'11 9.8
2014-Nov-21 05:26N 51°37' E 002°09'190 8.3
2014-Nov-20 06:28N 54°14' E 005°05'175 8.3
2014-Nov-19 09:31N 56°40' E 007°56'124 8.3
2014-Nov-18 18:33N 57°41' E 011°13'8 8.5
2014-Nov-18 17:33N 57°38' E 011°28'8 7.3
2014-Nov-18 16:32N 57°36' E 011°42'0 0.0
2014-Nov-18 15:32N 57°36' E 011°42'0 0.0
2014-Nov-18 14:32N 57°36' E 011°42'3 2.8
2014-Nov-18 13:34N 57°33' E 011°40'8 7.8
2014-Nov-18 12:33N 57°26' E 011°44'18 8.4
2014-Nov-18 10:24N 57°11' E 012°03'7 8.7
2014-Nov-18 09:33N 57°05' E 012°13'2 0.8
2014-Nov-18 07:26N 57°07' E 012°15'  
2014-Nov-15 02:24N 56°30' E 012°22'7 8.8
2014-Nov-15 01:33N 56°23' E 012°24'9 8.7
2014-Nov-15 00:33N 56°14' E 012°27'1010.2
2014-Nov-14 23:33N 56°05' E 012°36'1010.2
2014-Nov-14 22:33N 55°56' E 012°44'10 9.6
2014-Nov-14 21:33N 55°46' E 012°43'10 9.9
2014-Nov-14 20:33N 55°37' E 012°42'9 9.4
2014-Nov-14 19:33N 55°27' E 012°42'9 8.7
2014-Nov-14 18:33N 55°18' E 012°43'9 8.8
2014-Nov-14 17:33N 55°16' E 012°58'9 8.7
2014-Nov-14 16:32N 55°16' E 013°14'57 8.1
2014-Nov-14 09:27N 55°31' E 014°51'54 8.6
2014-Nov-14 03:09N 55°59' E 016°13'83 7.8
2014-Nov-13 16:32N 57°15' E 017°11'8 7.4
2014-Nov-13 15:28N 57°23' E 017°06'7 8.1
2014-Nov-13 14:33N 57°19' E 016°55'9 8.5
2014-Nov-13 13:33N 57°13' E 016°43'9 7.9
2014-Nov-13 12:24N 57°06' E 016°34'0 0.0
2014-Nov-13 08:31N 57°06' E 016°34'0 0.0
2014-Nov-13 06:28N 57°06' E 016°34'0 0.0
2014-Nov-13 00:31N 57°06' E 016°34'0 0.0
2014-Nov-12 23:28N 57°06' E 016°34'0 0.0
2014-Nov-12 22:31N 57°06' E 016°34'0 0.0
2014-Nov-12 21:28N 57°06' E 016°34'0 0.0
2014-Nov-12 20:31N 57°06' E 016°34'0 0.0
2014-Nov-12 19:25N 57°06' E 016°34'5 5.8
2014-Nov-12 18:33N 57°10' E 016°37'1110.5
2014-Nov-12 17:33N 57°18' E 016°51'10 9.8
2014-Nov-12 16:33N 57°22' E 017°07'10 9.6
2014-Nov-12 15:32N 57°14' E 017°17'  

Dump ship's entire track history